sensor_id;sensor_type;location;lat;lon;timestamp;temperature;humidity
38973;DHT22;25333;50.762;4.470;2023-07-30T00:00:41;16.60;99.90
38973;DHT22;25333;50.762;4.470;2023-07-30T00:03:07;16.70;99.90
38973;DHT22;25333;50.762;4.470;2023-07-30T00:05:32;16.70;99.90
38973;DHT22;25333;50.762;4.470;2023-07-30T00:07:58;16.70;99.90
38973;DHT22;25333;50.762;4.470;2023-07-30T00:10:23;16.80;99.90
38973;DHT22;25333;50.762;4.470;2023-07-30T00:12:49;16.60;99.90
38973;DHT22;25333;50.762;4.470;2023-07-30T00:15:15;16.60;99.90
38973;DHT22;25333;50.762;4.470;2023-07-30T00:17:40;16.50;99.90
38973;DHT22;25333;50.762;4.470;2023-07-30T00:20:07;16.60;99.90
38973;DHT22;25333;50.762;4.470;2023-07-30T00:22:33;16.60;99.90
38973;DHT22;25333;50.762;4.470;2023-07-30T00:24:59;16.60;99.90
38973;DHT22;25333;50.762;4.470;2023-07-30T00:27:25;16.60;99.90
38973;DHT22;25333;50.762;4.470;2023-07-30T00:29:51;16.50;99.90
38973;DHT22;25333;50.762;4.470;2023-07-30T00:32:16;16.50;99.90
38973;DHT22;25333;50.762;4.470;2023-07-30T00:34:43;16.50;99.90
38973;DHT22;25333;50.762;4.470;2023-07-30T00:37:09;16.50;99.90
38973;DHT22;25333;50.762;4.470;2023-07-30T00:39:35;16.50;99.90
38973;DHT22;25333;50.762;4.470;2023-07-30T00:42:00;16.60;99.90
38973;DHT22;25333;50.762;4.470;2023-07-30T00:44:26;16.70;99.90
38973;DHT22;25333;50.762;4.470;2023-07-30T00:46:52;16.70;99.90
38973;DHT22;25333;50.762;4.470;2023-07-30T00:49:18;16.70;99.90
38973;DHT22;25333;50.762;4.470;2023-07-30T00:51:44;16.70;99.90
38973;DHT22;25333;50.762;4.470;2023-07-30T00:54:10;16.80;99.90
38973;DHT22;25333;50.762;4.470;2023-07-30T00:56:36;16.90;99.90
38973;DHT22;25333;50.762;4.470;2023-07-30T00:59:02;16.80;99.90
38973;DHT22;25333;50.762;4.470;2023-07-30T01:01:30;16.70;99.90
38973;DHT22;25333;50.762;4.470;2023-07-30T01:03:58;16.70;99.90
38973;DHT22;25333;50.762;4.470;2023-07-30T01:06:24;16.70;99.90
38973;DHT22;25333;50.762;4.470;2023-07-30T01:08:50;16.70;99.90
38973;DHT22;25333;50.762;4.470;2023-07-30T01:11:16;16.60;99.90
38973;DHT22;25333;50.762;4.470;2023-07-30T01:13:42;16.70;99.90
38973;DHT22;25333;50.762;4.470;2023-07-30T01:16:08;16.80;99.90
38973;DHT22;25333;50.762;4.470;2023-07-30T01:18:34;16.80;99.90
38973;DHT22;25333;50.762;4.470;2023-07-30T01:21:00;16.80;99.90
38973;DHT22;25333;50.762;4.470;2023-07-30T01:23:26;16.80;99.90
38973;DHT22;25333;50.762;4.470;2023-07-30T01:26:04;16.90;99.90
38973;DHT22;25333;50.762;4.470;2023-07-30T01:28:37;16.90;99.90
38973;DHT22;25333;50.762;4.470;2023-07-30T01:31:16;16.80;99.90
38973;DHT22;25333;50.762;4.470;2023-07-30T01:33:46;16.70;99.90
38973;DHT22;25333;50.762;4.470;2023-07-30T01:36:15;16.80;99.90
38973;DHT22;25333;50.762;4.470;2023-07-30T01:38:42;16.90;99.90
38973;DHT22;25333;50.762;4.470;2023-07-30T01:41:09;16.80;99.90
38973;DHT22;25333;50.762;4.470;2023-07-30T01:43:34;16.80;99.90
38973;DHT22;25333;50.762;4.470;2023-07-30T01:46:00;16.90;99.90
38973;DHT22;25333;50.762;4.470;2023-07-30T01:48:26;17.00;99.90
38973;DHT22;25333;50.762;4.470;2023-07-30T01:50:52;16.90;99.90
38973;DHT22;25333;50.762;4.470;2023-07-30T01:53:18;16.90;99.90
38973;DHT22;25333;50.762;4.470;2023-07-30T01:55:43;16.80;99.90
38973;DHT22;25333;50.762;4.470;2023-07-30T01:58:12;16.90;99.90
38973;DHT22;25333;50.762;4.470;2023-07-30T02:00:38;17.00;99.90
38973;DHT22;25333;50.762;4.470;2023-07-30T02:03:04;16.80;99.90
38973;DHT22;25333;50.762;4.470;2023-07-30T02:05:30;16.80;99.90
38973;DHT22;25333;50.762;4.470;2023-07-30T02:07:56;16.70;99.90
38973;DHT22;25333;50.762;4.470;2023-07-30T02:10:23;16.80;99.90
38973;DHT22;25333;50.762;4.470;2023-07-30T02:12:49;16.90;99.90
38973;DHT22;25333;50.762;4.470;2023-07-30T02:15:15;17.00;99.90
38973;DHT22;25333;50.762;4.470;2023-07-30T02:17:40;16.90;99.90
38973;DHT22;25333;50.762;4.470;2023-07-30T02:20:07;16.90;99.90
38973;DHT22;25333;50.762;4.470;2023-07-30T02:22:32;16.80;99.90
38973;DHT22;25333;50.762;4.470;2023-07-30T02:24:58;16.70;99.90
38973;DHT22;25333;50.762;4.470;2023-07-30T02:27:24;16.80;99.90
38973;DHT22;25333;50.762;4.470;2023-07-30T02:29:49;16.70;99.90
38973;DHT22;25333;50.762;4.470;2023-07-30T02:32:15;16.70;99.90
38973;DHT22;25333;50.762;4.470;2023-07-30T02:34:41;16.80;99.90
38973;DHT22;25333;50.762;4.470;2023-07-30T02:37:07;16.70;99.90
38973;DHT22;25333;50.762;4.470;2023-07-30T02:39:32;16.80;99.90
38973;DHT22;25333;50.762;4.470;2023-07-30T02:41:58;16.90;99.90
38973;DHT22;25333;50.762;4.470;2023-07-30T02:44:24;16.80;99.90
38973;DHT22;25333;50.762;4.470;2023-07-30T02:46:49;16.70;99.90
38973;DHT22;25333;50.762;4.470;2023-07-30T02:49:15;16.70;99.90
38973;DHT22;25333;50.762;4.470;2023-07-30T02:51:41;16.60;99.90
38973;DHT22;25333;50.762;4.470;2023-07-30T02:54:08;16.50;99.90
38973;DHT22;25333;50.762;4.470;2023-07-30T02:56:35;16.50;99.90
38973;DHT22;25333;50.762;4.470;2023-07-30T02:59:01;16.50;99.90
38973;DHT22;25333;50.762;4.470;2023-07-30T03:01:27;16.50;99.90
38973;DHT22;25333;50.762;4.470;2023-07-30T03:03:52;16.50;99.90
38973;DHT22;25333;50.762;4.470;2023-07-30T03:06:18;16.40;99.90
38973;DHT22;25333;50.762;4.470;2023-07-30T03:08:43;16.40;99.90
38973;DHT22;25333;50.762;4.470;2023-07-30T03:11:09;16.40;99.90
38973;DHT22;25333;50.762;4.470;2023-07-30T03:13:35;16.40;99.90
38973;DHT22;25333;50.762;4.470;2023-07-30T03:16:01;16.50;99.90
38973;DHT22;25333;50.762;4.470;2023-07-30T03:18:26;16.50;99.90
38973;DHT22;25333;50.762;4.470;2023-07-30T03:20:58;16.50;99.90
38973;DHT22;25333;50.762;4.470;2023-07-30T03:23:24;16.60;99.90
38973;DHT22;25333;50.762;4.470;2023-07-30T03:25:50;16.60;99.90
38973;DHT22;25333;50.762;4.470;2023-07-30T03:28:15;16.60;99.90
38973;DHT22;25333;50.762;4.470;2023-07-30T03:30:41;16.60;99.90
38973;DHT22;25333;50.762;4.470;2023-07-30T03:33:06;16.50;99.90
38973;DHT22;25333;50.762;4.470;2023-07-30T03:35:32;16.50;99.90
38973;DHT22;25333;50.762;4.470;2023-07-30T03:37:58;16.50;99.90
38973;DHT22;25333;50.762;4.470;2023-07-30T03:40:23;16.40;99.90
38973;DHT22;25333;50.762;4.470;2023-07-30T03:42:49;16.30;99.90
38973;DHT22;25333;50.762;4.470;2023-07-30T03:45:15;16.30;99.90
38973;DHT22;25333;50.762;4.470;2023-07-30T03:47:40;16.40;99.90
38973;DHT22;25333;50.762;4.470;2023-07-30T03:50:06;16.30;99.90
38973;DHT22;25333;50.762;4.470;2023-07-30T03:52:32;16.40;99.90
38973;DHT22;25333;50.762;4.470;2023-07-30T03:54:58;16.50;99.90
38973;DHT22;25333;50.762;4.470;2023-07-30T03:57:23;16.50;99.90
38973;DHT22;25333;50.762;4.470;2023-07-30T03:59:49;16.30;99.90
38973;DHT22;25333;50.762;4.470;2023-07-30T04:02:14;16.30;99.90
38973;DHT22;25333;50.762;4.470;2023-07-30T04:04:42;16.40;99.90
38973;DHT22;25333;50.762;4.470;2023-07-30T04:07:10;16.60;99.90
38973;DHT22;25333;50.762;4.470;2023-07-30T04:09:36;16.60;99.90
38973;DHT22;25333;50.762;4.470;2023-07-30T04:12:01;16.50;99.90
38973;DHT22;25333;50.762;4.470;2023-07-30T04:14:27;16.40;99.90
38973;DHT22;25333;50.762;4.470;2023-07-30T04:16:53;16.50;99.90
38973;DHT22;25333;50.762;4.470;2023-07-30T04:19:18;16.50;99.90
38973;DHT22;25333;50.762;4.470;2023-07-30T04:21:44;16.50;99.90
38973;DHT22;25333;50.762;4.470;2023-07-30T04:24:10;16.50;99.90
38973;DHT22;25333;50.762;4.470;2023-07-30T04:26:36;16.40;99.90
38973;DHT22;25333;50.762;4.470;2023-07-30T04:29:01;16.40;99.90
38973;DHT22;25333;50.762;4.470;2023-07-30T04:31:27;16.40;99.90
38973;DHT22;25333;50.762;4.470;2023-07-30T04:33:53;16.30;99.90
38973;DHT22;25333;50.762;4.470;2023-07-30T04:36:18;16.40;99.90
38973;DHT22;25333;50.762;4.470;2023-07-30T04:38:44;16.40;99.90
38973;DHT22;25333;50.762;4.470;2023-07-30T04:41:10;16.40;99.90
38973;DHT22;25333;50.762;4.470;2023-07-30T04:43:35;16.40;99.90
38973;DHT22;25333;50.762;4.470;2023-07-30T04:46:01;16.30;99.90
38973;DHT22;25333;50.762;4.470;2023-07-30T04:48:27;16.20;99.90
38973;DHT22;25333;50.762;4.470;2023-07-30T04:50:52;16.20;99.90
38973;DHT22;25333;50.762;4.470;2023-07-30T04:53:18;16.30;99.90
38973;DHT22;25333;50.762;4.470;2023-07-30T04:55:46;16.40;99.90
38973;DHT22;25333;50.762;4.470;2023-07-30T04:58:11;16.30;99.90
38973;DHT22;25333;50.762;4.470;2023-07-30T05:00:37;16.30;99.90
38973;DHT22;25333;50.762;4.470;2023-07-30T05:03:03;16.40;99.90
38973;DHT22;25333;50.762;4.470;2023-07-30T05:05:28;16.20;99.90
38973;DHT22;25333;50.762;4.470;2023-07-30T05:07:54;16.10;99.90
38973;DHT22;25333;50.762;4.470;2023-07-30T05:10:20;16.10;99.90
38973;DHT22;25333;50.762;4.470;2023-07-30T05:12:45;16.20;99.90
38973;DHT22;25333;50.762;4.470;2023-07-30T05:15:11;16.10;99.90
38973;DHT22;25333;50.762;4.470;2023-07-30T05:17:36;16.00;99.90
38973;DHT22;25333;50.762;4.470;2023-07-30T05:20:02;16.00;99.90
38973;DHT22;25333;50.762;4.470;2023-07-30T05:22:28;16.10;99.90
38973;DHT22;25333;50.762;4.470;2023-07-30T05:24:54;16.20;99.90
38973;DHT22;25333;50.762;4.470;2023-07-30T05:27:19;16.30;99.90
38973;DHT22;25333;50.762;4.470;2023-07-30T05:29:45;16.20;99.90
38973;DHT22;25333;50.762;4.470;2023-07-30T05:32:10;16.20;99.90
38973;DHT22;25333;50.762;4.470;2023-07-30T05:34:38;16.10;99.90
38973;DHT22;25333;50.762;4.470;2023-07-30T05:37:03;16.10;99.90
38973;DHT22;25333;50.762;4.470;2023-07-30T05:39:29;16.10;99.90
38973;DHT22;25333;50.762;4.470;2023-07-30T05:41:54;16.10;99.90
38973;DHT22;25333;50.762;4.470;2023-07-30T05:44:20;16.20;99.90
38973;DHT22;25333;50.762;4.470;2023-07-30T05:46:46;16.30;99.90
38973;DHT22;25333;50.762;4.470;2023-07-30T05:49:12;16.10;99.90
38973;DHT22;25333;50.762;4.470;2023-07-30T05:51:37;16.20;99.90
38973;DHT22;25333;50.762;4.470;2023-07-30T05:54:03;16.20;99.90
38973;DHT22;25333;50.762;4.470;2023-07-30T05:56:29;16.20;99.90
38973;DHT22;25333;50.762;4.470;2023-07-30T05:58:54;16.30;99.90
38973;DHT22;25333;50.762;4.470;2023-07-30T06:01:20;16.30;99.90
38973;DHT22;25333;50.762;4.470;2023-07-30T06:03:46;16.40;99.90
38973;DHT22;25333;50.762;4.470;2023-07-30T06:06:11;16.50;99.90
38973;DHT22;25333;50.762;4.470;2023-07-30T06:08:37;16.30;99.90
38973;DHT22;25333;50.762;4.470;2023-07-30T06:11:03;16.40;99.90
38973;DHT22;25333;50.762;4.470;2023-07-30T06:13:29;16.20;99.90
38973;DHT22;25333;50.762;4.470;2023-07-30T06:15:55;16.30;99.90
38973;DHT22;25333;50.762;4.470;2023-07-30T06:18:21;16.20;99.90
38973;DHT22;25333;50.762;4.470;2023-07-30T06:20:47;16.20;99.90
38973;DHT22;25333;50.762;4.470;2023-07-30T06:23:12;16.30;99.90
38973;DHT22;25333;50.762;4.470;2023-07-30T06:25:38;16.30;99.90
38973;DHT22;25333;50.762;4.470;2023-07-30T06:28:05;16.30;99.90
38973;DHT22;25333;50.762;4.470;2023-07-30T06:30:32;16.30;99.90
38973;DHT22;25333;50.762;4.470;2023-07-30T06:32:58;16.40;99.90
38973;DHT22;25333;50.762;4.470;2023-07-30T06:35:23;16.40;99.90
38973;DHT22;25333;50.762;4.470;2023-07-30T06:37:50;16.40;99.90
38973;DHT22;25333;50.762;4.470;2023-07-30T06:40:16;16.50;99.90
38973;DHT22;25333;50.762;4.470;2023-07-30T06:42:42;16.50;99.90
38973;DHT22;25333;50.762;4.470;2023-07-30T06:45:08;16.50;99.90
38973;DHT22;25333;50.762;4.470;2023-07-30T06:47:33;16.50;99.90
38973;DHT22;25333;50.762;4.470;2023-07-30T06:49:59;16.50;99.90
38973;DHT22;25333;50.762;4.470;2023-07-30T06:52:25;16.50;99.90
38973;DHT22;25333;50.762;4.470;2023-07-30T06:54:50;16.60;99.90
38973;DHT22;25333;50.762;4.470;2023-07-30T06:57:16;16.60;99.90
38973;DHT22;25333;50.762;4.470;2023-07-30T06:59:42;16.60;99.90
38973;DHT22;25333;50.762;4.470;2023-07-30T07:02:07;16.60;99.90
38973;DHT22;25333;50.762;4.470;2023-07-30T07:04:33;16.80;99.90
38973;DHT22;25333;50.762;4.470;2023-07-30T07:06:59;16.80;99.90
38973;DHT22;25333;50.762;4.470;2023-07-30T07:09:24;16.90;99.90
38973;DHT22;25333;50.762;4.470;2023-07-30T07:11:50;17.00;99.90
38973;DHT22;25333;50.762;4.470;2023-07-30T07:14:15;17.00;99.90
38973;DHT22;25333;50.762;4.470;2023-07-30T07:16:41;17.00;99.90
38973;DHT22;25333;50.762;4.470;2023-07-30T07:19:07;17.10;99.90
38973;DHT22;25333;50.762;4.470;2023-07-30T07:21:32;17.10;99.90
38973;DHT22;25333;50.762;4.470;2023-07-30T07:23:58;17.20;99.90
38973;DHT22;25333;50.762;4.470;2023-07-30T07:26:24;17.30;99.90
38973;DHT22;25333;50.762;4.470;2023-07-30T07:28:50;17.30;99.90
38973;DHT22;25333;50.762;4.470;2023-07-30T07:31:15;17.50;99.90
38973;DHT22;25333;50.762;4.470;2023-07-30T07:33:41;17.50;99.90
38973;DHT22;25333;50.762;4.470;2023-07-30T07:36:09;17.60;99.90
38973;DHT22;25333;50.762;4.470;2023-07-30T07:38:34;17.60;99.90
38973;DHT22;25333;50.762;4.470;2023-07-30T07:41:01;17.70;99.90
38973;DHT22;25333;50.762;4.470;2023-07-30T07:43:27;17.80;99.90
38973;DHT22;25333;50.762;4.470;2023-07-30T07:45:53;17.80;99.90
38973;DHT22;25333;50.762;4.470;2023-07-30T07:48:19;17.80;99.90
38973;DHT22;25333;50.762;4.470;2023-07-30T07:50:45;17.70;99.90
38973;DHT22;25333;50.762;4.470;2023-07-30T07:53:12;17.70;99.90
38973;DHT22;25333;50.762;4.470;2023-07-30T07:55:37;17.70;99.90
38973;DHT22;25333;50.762;4.470;2023-07-30T07:58:03;17.80;99.90
38973;DHT22;25333;50.762;4.470;2023-07-30T08:00:29;17.90;99.90
38973;DHT22;25333;50.762;4.470;2023-07-30T08:02:54;17.90;99.90
38973;DHT22;25333;50.762;4.470;2023-07-30T08:05:20;17.90;99.90
38973;DHT22;25333;50.762;4.470;2023-07-30T08:07:46;18.00;99.90
38973;DHT22;25333;50.762;4.470;2023-07-30T08:10:12;18.10;99.90
38973;DHT22;25333;50.762;4.470;2023-07-30T08:12:37;18.00;99.90
38973;DHT22;25333;50.762;4.470;2023-07-30T08:15:03;17.90;99.90
38973;DHT22;25333;50.762;4.470;2023-07-30T08:17:29;18.10;99.90
38973;DHT22;25333;50.762;4.470;2023-07-30T08:19:55;18.30;99.90
38973;DHT22;25333;50.762;4.470;2023-07-30T08:22:20;18.40;99.90
38973;DHT22;25333;50.762;4.470;2023-07-30T08:24:46;18.60;99.90
38973;DHT22;25333;50.762;4.470;2023-07-30T08:27:12;18.60;99.90
38973;DHT22;25333;50.762;4.470;2023-07-30T08:29:37;18.60;99.90
38973;DHT22;25333;50.762;4.470;2023-07-30T08:32:03;18.80;99.90
38973;DHT22;25333;50.762;4.470;2023-07-30T08:34:29;18.80;99.90
38973;DHT22;25333;50.762;4.470;2023-07-30T08:36:55;18.60;99.90
38973;DHT22;25333;50.762;4.470;2023-07-30T08:39:20;18.60;99.90
38973;DHT22;25333;50.762;4.470;2023-07-30T08:41:46;18.50;99.90
38973;DHT22;25333;50.762;4.470;2023-07-30T08:44:12;18.40;99.90
38973;DHT22;25333;50.762;4.470;2023-07-30T08:46:38;18.50;99.90
38973;DHT22;25333;50.762;4.470;2023-07-30T08:49:04;18.40;99.90
38973;DHT22;25333;50.762;4.470;2023-07-30T08:51:31;18.50;99.90
38973;DHT22;25333;50.762;4.470;2023-07-30T08:54:00;18.40;99.90
38973;DHT22;25333;50.762;4.470;2023-07-30T08:56:26;18.40;99.90
38973;DHT22;25333;50.762;4.470;2023-07-30T08:58:53;18.40;99.90
38973;DHT22;25333;50.762;4.470;2023-07-30T09:01:34;18.30;99.90
38973;DHT22;25333;50.762;4.470;2023-07-30T09:04:00;18.20;99.90
38973;DHT22;25333;50.762;4.470;2023-07-30T09:06:26;18.30;99.90
38973;DHT22;25333;50.762;4.470;2023-07-30T09:08:52;18.50;99.90
38973;DHT22;25333;50.762;4.470;2023-07-30T09:11:18;18.40;99.90
38973;DHT22;25333;50.762;4.470;2023-07-30T09:13:44;18.50;99.90
38973;DHT22;25333;50.762;4.470;2023-07-30T09:16:14;18.50;99.90
38973;DHT22;25333;50.762;4.470;2023-07-30T09:18:44;18.60;99.90
38973;DHT22;25333;50.762;4.470;2023-07-30T09:21:11;18.50;99.90
38973;DHT22;25333;50.762;4.470;2023-07-30T09:23:41;18.40;99.90
38973;DHT22;25333;50.762;4.470;2023-07-30T09:26:08;18.30;99.90
38973;DHT22;25333;50.762;4.470;2023-07-30T09:28:33;18.20;99.90
38973;DHT22;25333;50.762;4.470;2023-07-30T09:31:07;18.10;99.90
38973;DHT22;25333;50.762;4.470;2023-07-30T09:33:34;18.20;99.90
38973;DHT22;25333;50.762;4.470;2023-07-30T09:36:04;18.20;99.90
38973;DHT22;25333;50.762;4.470;2023-07-30T09:38:30;18.30;99.90
38973;DHT22;25333;50.762;4.470;2023-07-30T09:41:01;18.40;99.90
38973;DHT22;25333;50.762;4.470;2023-07-30T09:43:33;18.50;99.90
38973;DHT22;25333;50.762;4.470;2023-07-30T09:46:04;18.60;99.90
38973;DHT22;25333;50.762;4.470;2023-07-30T09:48:33;18.60;99.90
38973;DHT22;25333;50.762;4.470;2023-07-30T09:51:00;18.80;99.90
38973;DHT22;25333;50.762;4.470;2023-07-30T09:53:30;18.70;99.90
38973;DHT22;25333;50.762;4.470;2023-07-30T09:55:55;18.60;99.90
38973;DHT22;25333;50.762;4.470;2023-07-30T09:58:21;18.70;99.90
38973;DHT22;25333;50.762;4.470;2023-07-30T10:00:48;18.70;99.90
38973;DHT22;25333;50.762;4.470;2023-07-30T10:03:15;18.70;99.90
38973;DHT22;25333;50.762;4.470;2023-07-30T10:05:44;18.70;99.90
38973;DHT22;25333;50.762;4.470;2023-07-30T10:08:17;18.70;99.90
38973;DHT22;25333;50.762;4.470;2023-07-30T10:10:46;18.60;99.90
38973;DHT22;25333;50.762;4.470;2023-07-30T10:13:12;18.60;99.90
38973;DHT22;25333;50.762;4.470;2023-07-30T10:15:38;18.60;99.90
38973;DHT22;25333;50.762;4.470;2023-07-30T10:18:04;18.60;99.90
38973;DHT22;25333;50.762;4.470;2023-07-30T10:20:31;18.60;99.90
38973;DHT22;25333;50.762;4.470;2023-07-30T10:22:59;18.70;99.90
38973;DHT22;25333;50.762;4.470;2023-07-30T10:25:44;18.80;99.90
38973;DHT22;25333;50.762;4.470;2023-07-30T10:31:02;19.10;99.80
38973;DHT22;25333;50.762;4.470;2023-07-30T10:33:52;19.20;99.90
38973;DHT22;25333;50.762;4.470;2023-07-30T10:36:31;19.30;99.90
38973;DHT22;25333;50.762;4.470;2023-07-30T10:39:26;19.40;99.70
38973;DHT22;25333;50.762;4.470;2023-07-30T10:41:52;19.70;99.90
38973;DHT22;25333;50.762;4.470;2023-07-30T10:46:55;20.00;99.90
38973;DHT22;25333;50.762;4.470;2023-07-30T10:49:21;19.90;99.90
38973;DHT22;25333;50.762;4.470;2023-07-30T10:51:47;19.90;99.90
38973;DHT22;25333;50.762;4.470;2023-07-30T10:54:13;19.60;99.90
38973;DHT22;25333;50.762;4.470;2023-07-30T10:56:38;19.40;99.50
38973;DHT22;25333;50.762;4.470;2023-07-30T10:59:06;19.10;99.90
38973;DHT22;25333;50.762;4.470;2023-07-30T11:01:40;19.10;99.90
38973;DHT22;25333;50.762;4.470;2023-07-30T11:04:09;19.20;99.90
38973;DHT22;25333;50.762;4.470;2023-07-30T11:06:35;19.10;99.90
38973;DHT22;25333;50.762;4.470;2023-07-30T11:09:01;19.20;99.90
38973;DHT22;25333;50.762;4.470;2023-07-30T11:11:27;19.40;99.90
38973;DHT22;25333;50.762;4.470;2023-07-30T11:13:53;19.60;99.90
38973;DHT22;25333;50.762;4.470;2023-07-30T11:16:18;19.80;99.90
38973;DHT22;25333;50.762;4.470;2023-07-30T11:18:44;20.00;99.90
38973;DHT22;25333;50.762;4.470;2023-07-30T11:21:16;20.40;99.90
38973;DHT22;25333;50.762;4.470;2023-07-30T11:23:44;20.70;99.00
38973;DHT22;25333;50.762;4.470;2023-07-30T11:26:18;20.90;99.80
38973;DHT22;25333;50.762;4.470;2023-07-30T11:28:44;21.00;99.80
38973;DHT22;25333;50.762;4.470;2023-07-30T11:31:12;21.00;99.70
38973;DHT22;25333;50.762;4.470;2023-07-30T11:33:46;21.00;99.00
38973;DHT22;25333;50.762;4.470;2023-07-30T11:36:15;21.10;97.70
38973;DHT22;25333;50.762;4.470;2023-07-30T11:38:41;21.20;98.30
38973;DHT22;25333;50.762;4.470;2023-07-30T11:41:07;21.30;98.90
38973;DHT22;25333;50.762;4.470;2023-07-30T11:43:40;21.60;97.90
38973;DHT22;25333;50.762;4.470;2023-07-30T11:48:47;21.70;95.40
38973;DHT22;25333;50.762;4.470;2023-07-30T11:53:48;21.40;96.40
38973;DHT22;25333;50.762;4.470;2023-07-30T11:56:23;21.70;96.60
38973;DHT22;25333;50.762;4.470;2023-07-30T11:58:50;21.80;97.40
38973;DHT22;25333;50.762;4.470;2023-07-30T12:01:16;21.80;96.50
38973;DHT22;25333;50.762;4.470;2023-07-30T12:03:42;21.80;95.60
38973;DHT22;25333;50.762;4.470;2023-07-30T12:06:12;21.50;94.10
38973;DHT22;25333;50.762;4.470;2023-07-30T12:08:38;21.60;97.30
38973;DHT22;25333;50.762;4.470;2023-07-30T12:11:05;21.60;94.70
38973;DHT22;25333;50.762;4.470;2023-07-30T12:13:31;21.50;95.50
38973;DHT22;25333;50.762;4.470;2023-07-30T12:15:57;21.80;97.20
38973;DHT22;25333;50.762;4.470;2023-07-30T12:18:24;22.00;96.10
38973;DHT22;25333;50.762;4.470;2023-07-30T12:20:51;21.70;95.70
38973;DHT22;25333;50.762;4.470;2023-07-30T12:23:17;21.40;95.70
38973;DHT22;25333;50.762;4.470;2023-07-30T12:25:43;21.30;96.20
38973;DHT22;25333;50.762;4.470;2023-07-30T12:28:09;21.20;96.70
38973;DHT22;25333;50.762;4.470;2023-07-30T12:30:35;21.10;97.40
38973;DHT22;25333;50.762;4.470;2023-07-30T12:33:02;21.20;99.00
38973;DHT22;25333;50.762;4.470;2023-07-30T12:35:29;21.50;97.90
38973;DHT22;25333;50.762;4.470;2023-07-30T12:37:54;21.50;96.90
38973;DHT22;25333;50.762;4.470;2023-07-30T12:40:20;21.70;98.60
38973;DHT22;25333;50.762;4.470;2023-07-30T12:42:45;22.00;97.40
38973;DHT22;25333;50.762;4.470;2023-07-30T12:45:11;21.90;96.40
38973;DHT22;25333;50.762;4.470;2023-07-30T12:47:37;22.00;96.70
38973;DHT22;25333;50.762;4.470;2023-07-30T12:50:03;22.00;94.70
38973;DHT22;25333;50.762;4.470;2023-07-30T12:52:30;21.90;96.40
38973;DHT22;25333;50.762;4.470;2023-07-30T12:54:56;21.80;94.90
38973;DHT22;25333;50.762;4.470;2023-07-30T12:57:21;21.70;95.80
38973;DHT22;25333;50.762;4.470;2023-07-30T12:59:47;21.70;95.30
38973;DHT22;25333;50.762;4.470;2023-07-30T13:02:13;21.70;96.00
38973;DHT22;25333;50.762;4.470;2023-07-30T13:04:38;21.70;95.60
38973;DHT22;25333;50.762;4.470;2023-07-30T13:07:04;21.60;96.50
38973;DHT22;25333;50.762;4.470;2023-07-30T13:09:30;21.40;95.50
38973;DHT22;25333;50.762;4.470;2023-07-30T13:11:56;21.30;95.30
38973;DHT22;25333;50.762;4.470;2023-07-30T13:14:22;21.30;94.90
38973;DHT22;25333;50.762;4.470;2023-07-30T13:16:47;21.10;93.80
38973;DHT22;25333;50.762;4.470;2023-07-30T13:19:13;21.20;95.00
38973;DHT22;25333;50.762;4.470;2023-07-30T13:21:38;21.20;95.50
38973;DHT22;25333;50.762;4.470;2023-07-30T13:24:04;21.30;94.40
38973;DHT22;25333;50.762;4.470;2023-07-30T13:26:30;21.40;95.30
38973;DHT22;25333;50.762;4.470;2023-07-30T13:28:56;21.50;94.30
38973;DHT22;25333;50.762;4.470;2023-07-30T13:31:21;21.60;93.40
38973;DHT22;25333;50.762;4.470;2023-07-30T13:33:47;21.60;93.20
38973;DHT22;25333;50.762;4.470;2023-07-30T13:36:13;21.70;94.60
38973;DHT22;25333;50.762;4.470;2023-07-30T13:38:39;21.70;93.60
38973;DHT22;25333;50.762;4.470;2023-07-30T13:41:05;21.60;93.50
38973;DHT22;25333;50.762;4.470;2023-07-30T13:43:33;21.70;94.10
38973;DHT22;25333;50.762;4.470;2023-07-30T13:45:59;21.70;94.80
38973;DHT22;25333;50.762;4.470;2023-07-30T13:48:25;21.80;93.70
38973;DHT22;25333;50.762;4.470;2023-07-30T13:50:51;21.80;92.20
38973;DHT22;25333;50.762;4.470;2023-07-30T13:53:17;21.80;93.00
38973;DHT22;25333;50.762;4.470;2023-07-30T13:55:43;21.90;93.90
38973;DHT22;25333;50.762;4.470;2023-07-30T13:58:09;22.00;94.10
38973;DHT22;25333;50.762;4.470;2023-07-30T14:00:34;21.90;93.20
38973;DHT22;25333;50.762;4.470;2023-07-30T14:03:00;21.80;93.50
38973;DHT22;25333;50.762;4.470;2023-07-30T14:05:26;21.70;94.50
38973;DHT22;25333;50.762;4.470;2023-07-30T14:07:54;21.60;94.30
38973;DHT22;25333;50.762;4.470;2023-07-30T14:10:22;21.50;93.80
38973;DHT22;25333;50.762;4.470;2023-07-30T14:12:48;21.40;94.10
38973;DHT22;25333;50.762;4.470;2023-07-30T14:15:13;21.30;93.90
38973;DHT22;25333;50.762;4.470;2023-07-30T14:17:40;21.40;94.00
38973;DHT22;25333;50.762;4.470;2023-07-30T14:20:06;21.50;94.50
38973;DHT22;25333;50.762;4.470;2023-07-30T14:22:33;21.50;94.50
38973;DHT22;25333;50.762;4.470;2023-07-30T14:24:58;21.50;94.30
38973;DHT22;25333;50.762;4.470;2023-07-30T14:27:24;21.50;95.00
38973;DHT22;25333;50.762;4.470;2023-07-30T14:29:50;21.50;94.90
38973;DHT22;25333;50.762;4.470;2023-07-30T14:32:17;21.50;94.50
38973;DHT22;25333;50.762;4.470;2023-07-30T14:34:43;21.50;95.20
38973;DHT22;25333;50.762;4.470;2023-07-30T14:37:09;21.40;95.00
38973;DHT22;25333;50.762;4.470;2023-07-30T14:39:34;21.30;95.20
38973;DHT22;25333;50.762;4.470;2023-07-30T14:42:00;21.30;94.90
38973;DHT22;25333;50.762;4.470;2023-07-30T14:44:25;21.20;94.70
38973;DHT22;25333;50.762;4.470;2023-07-30T14:46:51;21.30;95.70
38973;DHT22;25333;50.762;4.470;2023-07-30T14:49:17;21.20;95.40
38973;DHT22;25333;50.762;4.470;2023-07-30T14:51:43;21.10;95.70
38973;DHT22;25333;50.762;4.470;2023-07-30T14:54:08;21.10;95.60
38973;DHT22;25333;50.762;4.470;2023-07-30T14:56:35;21.00;95.70
38973;DHT22;25333;50.762;4.470;2023-07-30T14:59:01;20.90;96.00
38973;DHT22;25333;50.762;4.470;2023-07-30T15:01:30;20.90;96.30
38973;DHT22;25333;50.762;4.470;2023-07-30T15:03:56;20.70;95.50
38973;DHT22;25333;50.762;4.470;2023-07-30T15:06:23;20.60;96.80
38973;DHT22;25333;50.762;4.470;2023-07-30T15:08:49;20.60;96.50
38973;DHT22;25333;50.762;4.470;2023-07-30T15:11:15;20.50;96.60
38973;DHT22;25333;50.762;4.470;2023-07-30T15:13:40;20.40;97.80
38973;DHT22;25333;50.762;4.470;2023-07-30T15:16:06;20.40;97.30
38973;DHT22;25333;50.762;4.470;2023-07-30T15:18:32;20.40;97.30
38973;DHT22;25333;50.762;4.470;2023-07-30T15:20:58;20.50;97.10
38973;DHT22;25333;50.762;4.470;2023-07-30T15:23:24;20.30;97.40
38973;DHT22;25333;50.762;4.470;2023-07-30T15:25:50;20.30;97.90
38973;DHT22;25333;50.762;4.470;2023-07-30T15:28:17;20.30;98.20
38973;DHT22;25333;50.762;4.470;2023-07-30T15:30:42;20.20;98.30
38973;DHT22;25333;50.762;4.470;2023-07-30T15:33:09;20.10;98.90
38973;DHT22;25333;50.762;4.470;2023-07-30T15:35:35;19.80;98.60